createdAt,value
2022-11-20T20:22:32.693Z,68.03
2022-11-20T20:24:44.174Z,70.07
2022-11-20T20:26:52.352Z,68.01
2022-11-20T20:29:02.739Z,70.07
2022-11-20T20:31:12.462Z,65.55
2022-11-20T20:33:21.651Z,73.31
2022-11-20T20:35:29.748Z,64.27
2022-11-20T20:47:01.146Z,67.99
2022-11-20T20:49:07.978Z,67.37
2022-11-20T20:51:14.735Z,68.78
2022-11-20T20:53:20.818Z,60.00
2022-11-20T20:55:34.032Z,67.04
2022-11-20T20:57:40.597Z,57.43
2022-11-20T20:59:48.994Z,63.44
2022-11-20T21:01:59.853Z,44.07
2022-11-20T21:04:05.845Z,61.36
2022-11-20T21:06:14.764Z,64.95
2022-11-20T21:08:25.584Z,69.40
2022-11-20T21:10:31.497Z,61.96
2022-11-20T21:12:38.825Z,53.93
2022-11-20T21:14:48.202Z,51.07
2022-11-20T21:16:54.257Z,50.54
2022-11-20T21:19:00.258Z,56.92
2022-11-20T21:21:32.369Z,60.16
2022-11-20T21:23:39.969Z,59.28
2022-11-20T21:25:46.040Z,62.70
2022-11-20T21:27:53.707Z,62.54
2022-11-20T21:30:08.881Z,56.04
2022-11-20T21:32:16.099Z,55.62
2022-11-20T21:34:26.094Z,59.36
2022-11-20T21:36:34.970Z,62.16
2022-11-20T21:38:40.704Z,56.83
2022-11-20T21:40:47.428Z,59.78
2022-11-20T21:42:53.329Z,57.70
2022-11-20T21:45:02.712Z,56.41
2022-11-20T21:47:11.624Z,60.25
2022-11-20T21:49:18.492Z,62.28
2022-11-20T21:51:33.268Z,59.19
2022-11-20T21:53:40.754Z,62.07
2022-11-20T21:55:46.706Z,64.11
2022-11-20T21:57:54.825Z,63.96
2022-11-20T22:00:04.112Z,58.99
2022-11-20T22:02:15.928Z,59.69
2022-11-20T22:04:23.099Z,63.66
2022-11-20T22:06:35.890Z,57.22
2022-11-20T22:08:42.562Z,57.63
2022-11-20T22:11:00.853Z,55.17
2022-11-20T22:13:20.111Z,53.19
2022-11-20T22:15:53.567Z,58.13
2022-11-20T22:18:06.853Z,58.45
2022-11-20T22:20:14.525Z,56.86
2022-11-20T22:22:20.325Z,56.86
2022-11-20T22:24:26.897Z,56.33
2022-11-20T22:26:40.709Z,57.35
2022-11-20T22:28:50.626Z,54.37
2022-11-20T22:31:01.750Z,53.78
2022-11-20T22:33:17.771Z,56.26
2022-11-20T22:35:29.486Z,54.09
2022-11-20T22:37:35.299Z,52.45
2022-11-20T22:39:42.024Z,51.11
2022-11-20T22:41:47.839Z,52.39
2022-11-20T22:43:58.318Z,53.24
2022-11-20T22:46:14.737Z,53.13
2022-11-20T22:48:20.480Z,49.21
2022-11-20T22:50:26.278Z,48.29
2022-11-20T22:52:32.982Z,50.20
2022-11-20T22:54:38.908Z,49.83
2022-11-20T22:56:45.815Z,50.12
2022-11-20T22:58:55.519Z,51.53
2022-11-20T23:01:17.275Z,49.03
2022-11-20T23:03:23.173Z,51.27
2022-11-20T23:05:29.899Z,50.34
2022-11-20T23:07:40.726Z,53.13
2022-11-20T23:09:50.153Z,52.56
2022-11-20T23:11:56.820Z,52.21
2022-11-20T23:14:06.610Z,51.19
2022-11-20T23:16:18.149Z,50.93
2022-11-20T23:18:32.890Z,51.03
2022-11-20T23:20:40.677Z,50.12
2022-11-20T23:22:46.521Z,51.32
2022-11-20T23:24:53.211Z,49.21
2022-11-20T23:26:58.940Z,48.43
2022-11-20T23:29:05.915Z,47.35
2022-11-20T23:31:17.544Z,48.00
2022-11-20T23:33:23.255Z,46.25
2022-11-20T23:35:28.962Z,47.54
2022-11-20T23:37:36.134Z,50.53
2022-11-20T23:39:41.889Z,51.97
2022-11-20T23:41:47.662Z,52.58
2022-11-20T23:43:55.057Z,52.75
2022-11-20T23:46:06.230Z,54.34
2022-11-20T23:48:15.802Z,50.13
2022-11-20T23:50:22.283Z,46.64
2022-11-20T23:52:28.005Z,48.55
2022-11-20T23:54:33.667Z,46.51
2022-11-20T23:56:40.202Z,44.78
2022-11-20T23:58:46.758Z,46.32
